KHUL/HUL METAR and TAF weather

Enter ICAO airport designator
Station Type Date Time Source
KHUL METAR 2019/06/16 19:53 UTC NOAA

KHUL 161953Z AUTO 26008KT 10SM FEW070 22/09 A2978 RMK AO2 SLP085 T02220089


Station Type Date Time Source
KHUL Decoded METAR 2019/06/16 19:53 UTC NOAA

HOULTON INT'L AIRPORT, ME, United States (KHUL) 46-07N 067-48W 150M
Jun 16, 2019 - 03:53 PM EDT / 2019.06.16 1953 UTC
Wind: from the W (260 degrees) at 9 MPH (8 KT):0
Visibility: 10 mile(s):0
Sky conditions: mostly clear
Temperature: 72.0 F (22.2 C)
Dew Point: 48.0 F (8.9 C)
Relative Humidity: 42%
Pressure (altimeter): 29.78 in. Hg (1008 hPa)
ob: KHUL 161953Z AUTO 26008KT 10SM FEW070 22/09 A2978 RMK AO2 SLP085 T02220089
cycle: 20

Station Type Date Time Source
KHUL TAF 2019/06/16 18:22 UTC NOAA

TAF KHUL 161720Z 1618/1718 25007KT P6SM SCT050
FM162300 29004KT P6SM SCT060
FM170200 33003KT P6SM SCT060
FM171300 34008KT P6SM FEW200
FM171700 32010KT P6SM FEW060

Example: see airport list